Time;durP1;ratioP1;P1;durP2;ratioP2;P2;SDS_P1;SDS_P2;PMS_P1;PMS_P2;Temp;Humidity;BMP_temperature;BMP_pressure;BME280_temperature;BME280_humidity;BME280_pressure;Samples;Min_cycle;Max_cycle;Signal;HPM_P1;HPM_P2
2023/04/11 00:01:28;;;;;;;9.20;2.95;;;;;;;;;;5053539;28;20041;-63
2023/04/11 00:03:55;;;;;;;7.03;2.47;;;17.00;88.90;;;;;;5054807;28;20049;-62
2023/04/11 00:06:22;;;;;;;6.10;2.58;;;17.00;86.90;;;;;;5055043;28;20055;-62
2023/04/11 00:08:48;;;;;;;6.43;2.78;;;17.10;88.90;;;;;;5055460;28;20063;-62
2023/04/11 00:11:14;;;;;;;5.47;2.08;;;;;;;;;;5054377;28;20115;-63
2023/04/11 00:13:41;;;;;;;6.40;2.60;;;16.90;88.60;;;;;;5053746;28;20207;-62
2023/04/11 00:16:08;;;;;;;6.22;2.03;;;17.30;87.20;;;;;;5048574;28;20049;-62
2023/04/11 00:18:36;;;;;;;6.20;2.28;;;17.00;88.80;;;;;;5036146;28;20045;-63
2023/04/11 00:21:05;;;;;;;4.85;2.42;;;;;;;;;;5040261;28;20051;-63
2023/04/11 00:23:31;;;;;;;5.00;1.92;;;;;;;;;;5054841;28;20491;-62
2023/04/11 00:25:57;;;;;;;4.38;1.88;;;16.60;88.60;;;;;;5055843;28;20095;-62
2023/04/11 00:28:23;;;;;;;2.90;1.60;;;17.00;88.70;;;;;;5055125;28;20049;-62
2023/04/11 00:30:49;;;;;;;5.30;1.70;;;;;;;;;;5055706;28;20402;-63
2023/04/11 00:33:16;;;;;;;4.63;1.60;;;;;;;;;;5047850;28;20103;-62
2023/04/11 00:35:42;;;;;;;4.15;1.45;;;;;;;;;;5035802;28;20103;-62
2023/04/11 00:38:08;;;;;;;4.20;1.52;;;;;;;;;;5034691;28;20095;-62
2023/04/11 00:40:35;;;;;;;4.65;1.70;;;;;;;;;;5039520;28;20052;-62
2023/04/11 00:43:00;;;;;;;5.85;1.67;;;17.10;87.80;;;;;;5057100;28;20171;-62
2023/04/11 00:45:26;;;;;;;3.75;1.50;;;;;;;;;;5055644;28;20136;-61
2023/04/11 00:47:52;;;;;;;5.60;1.55;;;16.90;88.00;;;;;;5054106;28;20056;-62
2023/04/11 00:50:20;;;;;;;4.57;1.35;;;17.10;85.90;;;;;;5037533;28;20067;-62
2023/04/11 00:52:47;;;;;;;3.78;1.40;;;17.10;87.70;;;;;;5050740;28;20403;-62
2023/04/11 00:55:12;;;;;;;4.22;1.52;;;17.10;87.50;;;;;;5051167;28;20407;-63
2023/04/11 00:57:40;;;;;;;3.80;1.25;;;;;;;;;;5055176;28;20063;-62
2023/04/11 01:00:09;;;;;;;4.53;1.20;;;17.00;87.70;;;;;;5041261;28;20049;-62
2023/04/11 01:02:41;;;;;;;4.20;1.40;;;16.90;87.70;;;;;;5033992;28;20123;-62
2023/04/11 01:05:08;;;;;;;3.55;1.20;;;16.80;85.90;;;;;;5035492;28;20423;-62
2023/04/11 01:07:34;;;;;;;4.20;1.35;;;16.80;87.50;;;;;;5051911;28;20041;-61
2023/04/11 01:10:01;;;;;;;3.13;1.10;;;;;;;;;;5050833;28;20041;-62
2023/04/11 01:12:27;;;;;;;4.15;1.35;;;16.90;84.50;;;;;;5041020;28;20090;-62
2023/04/11 01:14:52;;;;;;;3.47;1.30;;;16.90;85.90;;;;;;5053598;28;20044;-62
2023/04/11 01:17:20;;;;;;;3.65;1.40;;;;;;;;;;5054868;28;20470;-62
2023/04/11 01:19:46;;;;;;;3.25;1.30;;;17.10;87.50;;;;;;5055023;28;20052;-62
2023/04/11 01:22:13;;;;;;;5.13;1.40;;;17.00;85.90;;;;;;5019844;28;20053;-62
2023/04/11 01:24:39;;;;;;;3.38;1.20;;;16.90;87.30;;;;;;5050021;28;20087;-62
2023/04/11 01:27:05;;;;;;;4.00;1.30;;;17.00;87.40;;;;;;5053340;28;20098;-63
2023/04/11 01:29:31;;;;;;;3.88;1.25;;;;;;;;;;5050873;28;20445;-66
2023/04/11 01:31:57;;;;;;;4.72;1.48;;;17.00;86.90;;;;;;5051107;28;20418;-63
2023/04/11 01:34:23;;;;;;;4.55;1.50;;;;;;;;;;5054112;28;20037;-62
2023/04/11 01:36:49;;;;;;;4.63;1.63;;;;;;;;;;5054160;28;20076;-61
2023/04/11 01:39:15;;;;;;;3.30;1.00;;;;;;;;;;5053130;28;20033;-62
2023/04/11 01:41:42;;;;;;;4.78;1.30;;;;;;;;;;5054655;28;20028;-62
2023/04/11 01:44:07;;;;;;;3.72;1.27;;;16.80;87.20;;;;;;5053808;28;20049;-63
2023/04/11 01:46:34;;;;;;;5.30;1.40;;;;;;;;;;5036915;28;20571;-61
2023/04/11 01:49:00;;;;;;;5.10;1.25;;;16.80;87.20;;;;;;5053663;28;20381;-62
2023/04/11 01:51:26;;;;;;;4.05;1.40;;;;;;;;;;5052789;28;20049;-61
2023/04/11 01:53:52;;;;;;;5.40;1.63;;;;;;;;;;5035932;28;20079;-61
2023/04/11 01:56:18;;;;;;;4.55;1.25;;;;;;;;;;5040266;28;20487;-62
2023/04/11 01:58:44;;;;;;;5.18;1.25;;;16.40;86.90;;;;;;5051927;28;20057;-62
2023/04/11 02:01:12;;;;;;;5.57;1.55;;;16.60;86.80;;;;;;5051244;28;20040;-62
2023/04/11 02:03:38;;;;;;;3.78;1.38;;;16.70;83.70;;;;;;5044634;28;20129;-61
2023/04/11 02:06:04;;;;;;;4.70;1.75;;;16.50;86.80;;;;;;5054120;28;20045;-62
2023/04/11 02:08:30;;;;;;;4.75;1.30;;;16.80;87.10;;;;;;5052867;28;20044;-61
2023/04/11 02:10:56;;;;;;;4.43;1.17;;;16.40;86.80;;;;;;5052855;28;20051;-62
2023/04/11 02:13:22;;;;;;;4.53;1.60;;;;;;;;;;5043672;28;20049;-61
2023/04/11 02:15:48;;;;;;;4.43;1.20;;;;;;;;;;5052139;28;20048;-62
2023/04/11 02:18:14;;;;;;;6.03;1.40;;;16.80;86.80;;;;;;5053348;28;20159;-61
2023/04/11 02:20:39;;;;;;;3.15;1.48;;;16.80;87.00;;;;;;5053566;28;20052;-62
2023/04/11 02:23:06;;;;;;;4.57;1.38;;;16.30;86.70;;;;;;5045314;28;20053;-61
2023/04/11 02:25:31;;;;;;;3.78;1.15;;;16.60;86.90;;;;;;5044294;28;20204;-62
2023/04/11 02:27:58;;;;;;;5.80;1.65;;;16.70;87.00;;;;;;5033706;28;20053;-62
2023/04/11 02:30:24;;;;;;;6.10;1.58;;;16.30;86.70;;;;;;5034088;28;20049;-62
2023/04/11 02:32:50;;;;;;;5.32;1.27;;;16.90;85.80;;;;;;5038803;28;20068;-62
2023/04/11 02:35:16;;;;;;;4.45;1.05;;;;;;;;;;5040608;28;20486;-62
2023/04/11 02:37:42;;;;;;;4.22;1.20;;;16.70;82.70;;;;;;5052654;28;20124;-68
2023/04/11 02:40:08;;;;;;;4.55;1.30;;;16.60;83.00;;;;;;5051664;28;20136;-61
2023/04/11 02:42:34;;;;;;;4.03;1.50;;;;;;;;;;5034536;28;20052;-62
2023/04/11 02:45:00;;;;;;;3.85;1.33;;;16.80;87.00;;;;;;5034358;28;20114;-62
2023/04/11 02:47:26;;;;;;;7.05;1.63;;;16.70;86.90;;;;;;5052190;28;20048;-61
2023/04/11 02:49:52;;;;;;;4.78;1.25;;;16.70;84.80;;;;;;5051006;28;20047;-62
2023/04/11 02:52:18;;;;;;;4.63;1.42;;;16.70;87.00;;;;;;5052662;28;20082;-61
2023/04/11 02:54:44;;;;;;;3.53;1.20;;;16.80;84.40;;;;;;5050353;28;20072;-62
2023/04/11 02:57:10;;;;;;;4.40;1.10;;;16.70;86.90;;;;;;5052666;28;20111;-63
2023/04/11 02:59:37;;;;;;;4.75;1.38;;;16.30;83.50;;;;;;5053338;28;20138;-61
2023/04/11 03:02:03;;;;;;;3.42;1.10;;;;;;;;;;5052970;28;20052;-61
2023/04/11 03:04:28;;;;;;;4.93;1.20;;;16.60;86.90;;;;;;5062179;28;20060;-61
2023/04/11 03:06:54;;;;;;;7.43;1.25;;;16.70;86.90;;;;;;5039830;28;20477;-61
2023/04/11 03:09:22;;;;;;;2.47;0.88;;;;;;;;;;5040387;28;20049;-65
2023/04/11 03:11:48;;;;;;;6.15;1.55;;;16.70;86.80;;;;;;5053034;28;20045;-62
2023/04/11 03:14:14;;;;;;;4.47;1.40;;;;;;;;;;5050631;28;20479;-62
2023/04/11 03:16:40;;;;;;;4.57;1.25;;;;;;;;;;5051419;28;20056;-62
2023/04/11 03:19:06;;;;;;;5.32;1.15;;;;;;;;;;5052593;28;20045;-61
2023/04/11 03:21:32;;;;;;;5.32;1.15;;;;;;;;;;5052689;28;20069;-63
2023/04/11 03:23:58;;;;;;;3.70;0.95;;;;;;;;;;5045132;28;20052;-62
2023/04/11 03:26:27;;;;;;;3.58;1.08;;;16.80;84.10;;;;;;5052478;28;20045;-62
2023/04/11 03:28:53;;;;;;;5.13;1.20;;;16.30;84.60;;;;;;5053002;28;20044;-61
2023/04/11 03:31:19;;;;;;;2.55;1.10;;;16.80;84.20;;;;;;5051409;28;20075;-62
2023/04/11 03:33:45;;;;;;;4.68;1.20;;;;;;;;;;5050686;28;20091;-62
2023/04/11 03:36:11;;;;;;;2.75;0.98;;;;;;;;;;5049844;28;20045;-61
2023/04/11 03:38:37;;;;;;;3.80;1.00;;;16.60;86.80;;;;;;5051733;28;20060;-62
2023/04/11 03:41:03;;;;;;;4.82;1.27;;;16.50;87.00;;;;;;5038325;28;20125;-63
2023/04/11 03:43:29;;;;;;;4.65;1.23;;;16.20;86.60;;;;;;5030871;28;20076;-62
2023/04/11 03:45:55;;;;;;;3.40;0.80;;;;;;;;;;5050149;28;20049;-62
2023/04/11 03:48:25;;;;;;;3.50;1.10;;;;;;;;;;5048440;28;20041;-62
2023/04/11 03:50:51;;;;;;;3.20;0.70;;;16.60;83.00;;;;;;5071121;28;20056;-62
2023/04/11 03:53:17;;;;;;;3.55;0.98;;;;;;;;;;5071295;28;20044;-62
2023/04/11 03:55:43;;;;;;;3.72;0.90;;;16.40;86.10;;;;;;5060783;28;20102;-61
2023/04/11 03:58:10;;;;;;;4.13;1.25;;;16.70;85.80;;;;;;5035931;28;20128;-62
2023/04/11 04:00:36;;;;;;;3.28;0.85;;;16.70;83.20;;;;;;5049555;28;20116;-61
2023/04/11 04:03:02;;;;;;;3.33;0.98;;;16.60;86.90;;;;;;5043846;28;20125;-62
2023/04/11 04:05:28;;;;;;;1.23;0.50;;;;;;;;;;5035478;28;20067;-62
2023/04/11 04:07:54;;;;;;;2.90;1.00;;;;;;;;;;5050952;28;20154;-62
2023/04/11 04:10:20;;;;;;;2.40;0.80;;;;;;;;;;5050989;28;20398;-62
2023/04/11 04:12:46;;;;;;;4.25;0.85;;;16.60;86.90;;;;;;5050956;28;20056;-61
2023/04/11 04:15:13;;;;;;;2.45;1.10;;;;;;;;;;5051892;28;20041;-61
2023/04/11 04:17:40;;;;;;;4.22;0.80;;;;;;;;;;5050596;28;20053;-61
2023/04/11 04:20:09;;;;;;;3.25;0.90;;;16.60;85.10;;;;;;5051021;28;20045;-62
2023/04/11 04:22:36;;;;;;;3.55;0.95;;;16.60;86.80;;;;;;5049840;28;20048;-62
2023/04/11 04:25:02;;;;;;;4.70;1.10;;;;;;;;;;5050757;28;20058;-62
2023/04/11 04:27:28;;;;;;;1.27;0.60;;;16.80;86.80;;;;;;5033639;28;20045;-63
2023/04/11 04:29:55;;;;;;;2.97;1.05;;;;;;;;;;5052398;28;20556;-62
2023/04/11 04:32:22;;;;;;;2.85;0.73;;;16.70;86.90;;;;;;5037104;28;20128;-61
2023/04/11 04:34:53;;;;;;;3.72;0.95;;;16.50;86.80;;;;;;5018359;28;20049;-61
2023/04/11 04:37:20;;;;;;;2.22;0.80;;;16.50;86.80;;;;;;5045395;28;20110;-62
2023/04/11 04:39:54;;;;;;;4.63;1.00;;;16.60;86.90;;;;;;5050687;28;20530;-64
2023/04/11 04:42:25;;;;;;;4.20;0.88;;;16.50;86.80;;;;;;5052719;28;20053;-62
2023/04/11 04:44:51;;;;;;;3.35;0.80;;;16.60;84.20;;;;;;5054254;28;20076;-63
2023/04/11 04:47:17;;;;;;;6.82;0.93;;;;;;;;;;5053174;28;20049;-62
2023/04/11 04:49:43;;;;;;;2.70;0.88;;;16.60;84.50;;;;;;5056704;28;20048;-61
2023/04/11 04:52:10;;;;;;;3.50;1.08;;;;;;;;;;5075592;28;20371;-62
2023/04/11 04:54:37;;;;;;;4.18;1.10;;;;;;;;;;5038147;28;20080;-63
2023/04/11 04:57:02;;;;;;;2.97;1.08;;;16.60;86.90;;;;;;5054773;28;20617;-62
2023/04/11 04:59:29;;;;;;;6.95;1.50;;;;;;;;;;5053501;28;20114;-61
2023/04/11 05:01:55;;;;;;;3.22;0.90;;;16.20;86.70;;;;;;5054922;28;20116;-62
2023/04/11 05:04:21;;;;;;;3.53;1.33;;;16.70;85.00;;;;;;5040478;28;20096;-62
2023/04/11 05:06:47;;;;;;;3.20;0.82;;;16.60;87.00;;;;;;5052684;28;20056;-61
2023/04/11 05:09:13;;;;;;;5.20;1.15;;;;;;;;;;5052702;28;20487;-63
2023/04/11 05:11:39;;;;;;;3.65;0.90;;;16.60;87.00;;;;;;5053249;28;20045;-61
2023/04/11 05:14:05;;;;;;;3.75;1.10;;;16.70;87.10;;;;;;5054798;28;20048;-61
2023/04/11 05:16:31;;;;;;;3.45;1.00;;;;;;;;;;5054651;28;20499;-63
2023/04/11 05:18:57;;;;;;;5.07;1.52;;;;;;;;;;5053745;28;20052;-61
2023/04/11 05:21:23;;;;;;;3.58;1.00;;;;;;;;;;5053090;28;20052;-67
2023/04/11 05:23:50;;;;;;;4.68;1.02;;;;;;;;;;5021444;28;20091;-60
2023/04/11 05:26:15;;;;;;;4.47;1.35;;;16.90;87.10;;;;;;5053295;28;20059;-61
2023/04/11 05:28:42;;;;;;;5.60;1.42;;;;;;;;;;5053398;28;20052;-62
2023/04/11 05:31:08;;;;;;;2.75;0.95;;;17.00;87.00;;;;;;5053714;28;20053;-64
2023/04/11 05:33:37;;;;;;;3.97;1.00;;;17.20;87.10;;;;;;5035654;28;20053;-62
2023/04/11 05:36:03;;;;;;;4.60;1.40;;;17.00;82.90;;;;;;5051246;28;20049;-64
2023/04/11 05:38:30;;;;;;;5.60;1.33;;;16.90;86.80;;;;;;5051376;28;20044;-62
2023/04/11 05:40:56;;;;;;;4.63;1.48;;;16.80;84.40;;;;;;5047337;28;20178;-67
2023/04/11 05:43:22;;;;;;;5.93;1.48;;;;;;;;;;5053340;28;22255;-61
2023/04/11 05:45:48;;;;;;;4.72;1.85;;;;;;;;;;5050816;28;20037;-61
2023/04/11 05:48:14;;;;;;;4.90;1.20;;;16.70;86.10;;;;;;5054010;28;20402;-62
2023/04/11 05:50:40;;;;;;;3.58;1.20;;;;;;;;;;5053437;28;20043;-61
2023/04/11 05:53:07;;;;;;;5.07;1.95;;;;;;;;;;5054094;28;20409;-61
2023/04/11 05:55:33;;;;;;;3.47;1.10;;;16.90;84.70;;;;;;5051175;28;20100;-61
2023/04/11 05:57:59;;;;;;;3.45;1.30;;;;;;;;;;5044617;28;20119;-61
2023/04/11 06:00:29;;;;;;;4.07;1.27;;;;;;;;;;5052901;28;20120;-61
2023/04/11 06:02:55;;;;;;;3.75;1.40;;;16.90;82.60;;;;;;5053916;28;20090;-63
2023/04/11 06:05:21;;;;;;;3.47;1.08;;;17.00;86.20;;;;;;5050163;28;20040;-61
2023/04/11 06:07:47;;;;;;;4.35;1.33;;;17.10;86.60;;;;;;5045449;28;20099;-61
2023/04/11 06:10:13;;;;;;;5.32;1.33;;;;;;;;;;5033663;28;20106;-61
2023/04/11 06:12:39;;;;;;;3.50;1.00;;;17.00;86.50;;;;;;5051325;28;20402;-62
2023/04/11 06:15:05;;;;;;;3.42;1.20;;;;;;;;;;5037781;28;20049;-61
2023/04/11 06:17:31;;;;;;;4.65;1.60;;;17.00;86.50;;;;;;5053226;28;20049;-62
2023/04/11 06:19:57;;;;;;;5.15;1.38;;;;;;;;;;5049164;28;20142;-62
2023/04/11 06:22:24;;;;;;;5.00;1.15;;;;;;;;;;5051956;28;20473;-62
2023/04/11 06:24:50;;;;;;;5.25;1.45;;;;;;;;;;5053495;28;20072;-62
2023/04/11 06:27:16;;;;;;;3.00;1.10;;;;;;;;;;5050467;28;20040;-66
2023/04/11 06:29:42;;;;;;;5.45;1.27;;;;;;;;;;5051880;28;20060;-61
2023/04/11 06:32:08;;;;;;;3.00;1.17;;;;;;;;;;5052711;28;20045;-61
2023/04/11 06:34:34;;;;;;;4.95;1.30;;;;;;;;;;5051251;28;20056;-62
2023/04/11 06:37:00;;;;;;;4.13;1.10;;;16.90;86.40;;;;;;5050541;28;20049;-63
2023/04/11 06:39:26;;;;;;;4.97;1.30;;;;;;;;;;5050931;28;20151;-63
2023/04/11 06:41:52;;;;;;;3.90;1.10;;;17.10;84.80;;;;;;5052712;28;20398;-62
2023/04/11 06:44:18;;;;;;;5.43;1.50;;;;;;;;;;5053161;28;20033;-61
2023/04/11 06:46:44;;;;;;;4.05;1.33;;;17.10;83.30;;;;;;5048833;28;20052;-61
2023/04/11 06:49:10;;;;;;;3.72;1.10;;;;;;;;;;5034437;28;20041;-62
2023/04/11 06:51:36;;;;;;;4.25;1.40;;;17.10;86.30;;;;;;5051393;28;20052;-61
2023/04/11 06:54:02;;;;;;;5.45;1.98;;;16.80;83.00;;;;;;5052268;28;20041;-61
2023/04/11 06:56:28;;;;;;;4.72;1.35;;;17.40;83.70;;;;;;5052303;28;20068;-64
2023/04/11 06:58:54;;;;;;;4.25;1.27;;;;;;;;;;5052045;28;20048;-63
2023/04/11 07:01:24;;;;;;;6.75;1.65;;;;;;;;;;5051970;28;20044;-65
2023/04/11 07:03:51;;;;;;;4.90;1.65;;;17.30;85.00;;;;;;5047567;28;20072;-63
2023/04/11 07:06:20;;;;;;;6.00;1.65;;;17.50;81.90;;;;;;5031332;28;20053;-68
2023/04/11 07:08:46;;;;;;;6.72;1.27;;;17.60;83.10;;;;;;5047947;28;20048;-62
2023/04/11 07:11:12;;;;;;;5.80;1.42;;;17.50;85.60;;;;;;5048946;28;20095;-64
2023/04/11 07:13:38;;;;;;;4.65;1.50;;;;;;;;;;5051055;28;20045;-63
2023/04/11 07:16:04;;;;;;;3.78;1.25;;;17.40;81.80;;;;;;5052654;28;20041;-68
2023/04/11 07:18:30;;;;;;;4.20;1.30;;;17.30;85.50;;;;;;5048512;28;20079;-63
2023/04/11 07:20:56;;;;;;;4.63;1.42;;;;;;;;;;5020006;28;20076;-62
2023/04/11 07:23:22;;;;;;;6.55;1.48;;;17.40;84.20;;;;;;5048162;28;20064;-67
2023/04/11 07:25:49;;;;;;;4.72;1.25;;;17.50;85.60;;;;;;5032651;28;20055;-69
2023/04/11 07:28:15;;;;;;;3.60;1.35;;;17.50;83.20;;;;;;5032532;28;20390;-64
2023/04/11 07:30:41;;;;;;;5.75;2.00;;;;;;;;;;5040462;28;20462;-63
2023/04/11 07:33:07;;;;;;;6.47;1.80;;;17.60;85.60;;;;;;5041332;28;20499;-62
2023/04/11 07:35:33;;;;;;;6.32;1.80;;;17.50;85.60;;;;;;5041244;28;20044;-67
2023/04/11 07:38:02;;;;;;;5.28;1.63;;;17.40;85.50;;;;;;5044357;28;20041;-62
2023/04/11 07:40:28;;;;;;;5.20;1.60;;;17.60;85.00;;;;;;5044792;28;20103;-64
2023/04/11 07:42:54;;;;;;;6.07;1.40;;;;;;;;;;5042217;28;20137;-65
2023/04/11 07:45:20;;;;;;;5.65;1.60;;;;;;;;;;5043087;28;20041;-64
2023/04/11 07:47:46;;;;;;;6.20;1.48;;;17.90;81.90;;;;;;5048654;28;20165;-65
2023/04/11 07:50:13;;;;;;;6.57;1.55;;;;;;;;;;5044064;28;20102;-66
2023/04/11 07:52:39;;;;;;;3.65;1.30;;;;;;;;;;5044953;28;20398;-62
2023/04/11 07:55:05;;;;;;;5.03;1.52;;;18.00;85.00;;;;;;5044266;28;20037;-62
2023/04/11 07:57:31;;;;;;;5.88;1.80;;;17.80;82.20;;;;;;5048078;28;20399;-65
2023/04/11 08:00:00;;;;;;;5.00;1.65;;;18.10;85.00;;;;;;5050130;28;20040;-65
2023/04/11 08:02:25;;;;;;;4.82;1.67;;;18.00;84.70;;;;;;5047956;28;20049;-63
2023/04/11 08:04:52;;;;;;;8.88;1.70;;;;;;;;;;5050774;28;20052;-62
2023/04/11 08:07:17;;;;;;;6.40;1.67;;;18.10;84.60;;;;;;5051028;28;20131;-64
2023/04/11 08:09:44;;;;;;;6.30;1.95;;;;;;;;;;5052037;28;20128;-66
2023/04/11 08:12:10;;;;;;;6.55;1.90;;;;;;;;;;5049222;28;20541;-63
2023/04/11 08:14:36;;;;;;;5.85;1.52;;;18.20;84.50;;;;;;5052830;28;20090;-68
2023/04/11 08:17:02;;;;;;;7.10;1.88;;;18.30;84.40;;;;;;5052031;28;20048;-63
2023/04/11 08:19:28;;;;;;;7.22;1.67;;;18.40;84.20;;;;;;5051078;28;20044;-67
2023/04/11 08:21:54;;;;;;;8.45;2.05;;;;;;;;;;5052449;28;20128;-67
2023/04/11 08:24:20;;;;;;;4.88;1.63;;;;;;;;;;5053283;28;20076;-63
2023/04/11 08:26:47;;;;;;;7.13;1.65;;;;;;;;;;5053715;28;20056;-62
2023/04/11 08:29:12;;;;;;;5.47;1.73;;;18.40;84.20;;;;;;5026447;28;20049;-62
2023/04/11 08:31:44;;;;;;;7.25;1.90;;;18.20;82.50;;;;;;5052772;28;20376;-66
2023/04/11 08:34:11;;;;;;;4.23;1.23;;;;;;;;;;5052028;28;20052;-65
2023/04/11 08:36:37;;;;;;;6.35;1.88;;;;;;;;;;5054442;28;20067;-62
2023/04/11 08:39:03;;;;;;;7.68;2.28;;;;;;;;;;5054797;28;20041;-66
2023/04/11 08:41:31;;;;;;;5.22;1.52;;;18.20;82.50;;;;;;5054167;28;20479;-64
2023/04/11 08:43:57;;;;;;;5.50;1.63;;;;;;;;;;5052567;28;20053;-66
2023/04/11 08:46:23;;;;;;;4.85;1.33;;;18.00;80.70;;;;;;5045557;28;20054;-68
2023/04/11 08:48:50;;;;;;;5.68;2.00;;;;;;;;;;5049067;28;20681;-63
2023/04/11 08:51:25;;;;;;;5.68;1.60;;;18.00;84.10;;;;;;5046702;28;20045;-63
2023/04/11 08:53:52;;;;;;;5.38;1.63;;;18.20;80.20;;;;;;5056247;28;20047;-65
2023/04/11 08:56:18;;;;;;;7.53;1.50;;;18.60;80.50;;;;;;5051833;28;20037;-62
2023/04/11 08:58:44;;;;;;;5.82;2.17;;;18.20;83.70;;;;;;5052719;28;20052;-62
2023/04/11 09:01:27;;;;;;;5.53;2.05;;;18.20;80.50;;;;;;5054852;28;20040;-64
2023/04/11 09:03:53;;;;;;;6.38;2.15;;;18.40;83.80;;;;;;5041257;28;20132;-63
2023/04/11 09:06:19;;;;;;;6.95;1.92;;;18.20;80.90;;;;;;5045555;28;20275;-62
2023/04/11 09:08:45;;;;;;;7.53;1.88;;;;;;;;;;5044777;28;20043;-63
2023/04/11 09:11:11;;;;;;;4.70;1.42;;;18.40;82.40;;;;;;5049620;28;20056;-62
2023/04/11 09:13:37;;;;;;;4.22;1.85;;;18.60;80.40;;;;;;5053365;28;20052;-62
2023/04/11 09:16:07;;;;;;;6.35;1.80;;;18.70;83.60;;;;;;5054192;28;20037;-62
2023/04/11 09:18:35;;;;;;;6.80;2.10;;;18.70;82.50;;;;;;5049851;28;20054;-62
2023/04/11 09:21:05;;;;;;;6.95;1.70;;;18.70;80.50;;;;;;5047195;28;20045;-62
2023/04/11 09:23:31;;;;;;;7.18;1.80;;;;;;;;;;5050016;28;22163;-62
2023/04/11 09:25:57;;;;;;;7.15;1.45;;;;;;;;;;5041350;28;20052;-63
2023/04/11 09:28:24;;;;;;;7.07;1.70;;;;;;;;;;5051304;28;20398;-63
2023/04/11 09:30:54;;;;;;;4.88;1.42;;;19.00;82.10;;;;;;5053027;28;20041;-63
2023/04/11 09:33:24;;;;;;;6.72;1.70;;;19.30;83.30;;;;;;5054154;28;20084;-63
2023/04/11 09:35:51;;;;;;;9.50;2.33;;;19.20;82.70;;;;;;5046858;28;20045;-63
2023/04/11 09:38:26;;;;;;;11.93;1.98;;;19.60;78.50;;;;;;5043428;28;20037;-61
2023/04/11 09:40:52;;;;;;;8.93;1.88;;;19.80;81.60;;;;;;5053774;28;20187;-61
2023/04/11 09:43:18;;;;;;;7.15;2.08;;;;;;;;;;5052754;28;20127;-61
2023/04/11 09:45:45;;;;;;;9.05;1.90;;;;;;;;;;5047716;28;20040;-62
2023/04/11 09:48:11;;;;;;;12.13;2.10;;;19.60;78.90;;;;;;5053553;28;20045;-61
2023/04/11 09:50:37;;;;;;;6.93;1.60;;;;;;;;;;5050696;28;20596;-63
2023/04/11 09:53:06;;;;;;;9.55;2.42;;;19.50;82.30;;;;;;5051724;28;20053;-65
2023/04/11 09:55:32;;;;;;;7.32;1.80;;;;;;;;;;5037853;28;20491;-67
2023/04/11 09:57:58;;;;;;;7.38;1.95;;;19.80;82.40;;;;;;5050947;28;20240;-63
2023/04/11 10:00:28;;;;;;;9.00;1.77;;;19.70;82.40;;;;;;5050516;28;20048;-64
2023/04/11 10:02:54;;;;;;;9.63;1.67;;;19.80;81.80;;;;;;5052971;28;20053;-65
2023/04/11 10:05:24;;;;;;;7.18;2.20;;;;;;;;;;5053013;28;20110;-64
2023/04/11 10:08:13;;;;;;;10.02;2.35;;;19.50;82.50;;;;;;5050730;28;20060;-62
2023/04/11 10:10:41;;;;;;;11.52;1.80;;;19.40;82.60;;;;;;5049996;28;20533;-66
2023/04/11 10:13:41;;;;;;;8.02;1.77;;;19.40;77.80;;;;;;5036192;28;20080;-65
2023/04/11 10:16:14;;;;;;;9.82;2.10;;;19.40;79.40;;;;;;5050266;28;20502;-63
2023/04/11 10:18:50;;;;;;;7.15;1.65;;;;;;;;;;5047811;28;20045;-63
2023/04/11 10:21:35;;;;;;;6.03;1.52;;;19.20;78.30;;;;;;5052262;28;20430;-62
2023/04/11 10:24:13;;;;;;;5.88;1.75;;;19.50;78.00;;;;;;5033145;28;20461;-67
2023/04/11 10:26:56;;;;;;;4.72;1.30;;;19.40;79.80;;;;;;5039272;28;20053;-61
2023/04/11 10:29:37;;;;;;;6.68;1.58;;;19.40;82.30;;;;;;5046541;28;20052;-62
2023/04/11 10:32:15;;;;;;;9.13;1.85;;;19.30;77.80;;;;;;5052450;28;20402;-64
2023/04/11 10:34:52;;;;;;;6.65;1.60;;;19.40;77.90;;;;;;5049439;28;20049;-71
2023/04/11 10:37:19;;;;;;;13.02;1.83;;;;;;;;;;5036016;28;20029;-62
2023/04/11 10:39:54;;;;;;;7.50;1.70;;;19.20;82.20;;;;;;5046886;28;20521;-70
2023/04/11 10:42:27;;;;;;;5.80;1.30;;;19.20;78.40;;;;;;5048788;28;20041;-65
2023/04/11 10:45:23;;;;;;;5.10;1.58;;;19.30;78.30;;;;;;5029172;28;20084;-66
2023/04/11 10:48:06;;;;;;;6.05;1.45;;;19.30;82.60;;;;;;5044360;28;20481;-64
2023/04/11 10:50:33;;;;;;;5.32;1.58;;;19.30;82.70;;;;;;5052046;28;20037;-61
2023/04/11 10:52:59;;;;;;;4.95;1.80;;;18.80;82.40;;;;;;5049895;28;20454;-61
2023/04/11 10:55:27;;;;;;;4.57;1.48;;;18.90;79.20;;;;;;5050843;28;20111;-61
2023/04/11 10:58:21;;;;;;;4.65;1.33;;;19.20;82.60;;;;;;5050185;28;20049;-62
2023/04/11 11:00:53;;;;;;;6.10;1.58;;;;;;;;;;5049599;28;20057;-61
2023/04/11 11:03:27;;;;;;;4.05;1.02;;;19.20;82.40;;;;;;5037081;28;20055;-62
2023/04/11 11:06:00;;;;;;;5.55;1.30;;;18.90;78.90;;;;;;5042977;28;20391;-62
2023/04/11 11:08:30;;;;;;;5.28;1.35;;;;;;;;;;5048866;28;20041;-62
2023/04/11 11:11:00;;;;;;;3.80;1.52;;;19.10;78.00;;;;;;5049466;28;20041;-63
2023/04/11 11:13:43;;;;;;;5.88;1.25;;;19.20;82.20;;;;;;5051659;28;20114;-61
2023/04/11 11:16:13;;;;;;;4.30;1.50;;;19.30;82.40;;;;;;5051402;28;20091;-61
2023/04/11 11:18:40;;;;;;;4.00;1.33;;;;;;;;;;5049255;28;20123;-61
2023/04/11 11:21:06;;;;;;;2.17;0.80;;;19.10;82.10;;;;;;5050390;28;20048;-63
2023/04/11 11:23:33;;;;;;;3.85;1.00;;;;;;;;;;5036076;28;20049;-62
2023/04/11 11:25:59;;;;;;;3.70;0.90;;;18.90;82.00;;;;;;5049839;28;20049;-61
2023/04/11 11:28:26;;;;;;;2.85;0.80;;;18.80;82.00;;;;;;5050593;28;20105;-61
2023/04/11 11:30:53;;;;;;;3.67;1.25;;;18.70;81.90;;;;;;5068936;28;20106;-61
2023/04/11 11:33:20;;;;;;;3.40;0.80;;;19.20;79.10;;;;;;5051556;28;20063;-62
2023/04/11 11:36:01;;;;;;;2.20;0.88;;;18.70;79.20;;;;;;5047937;28;20254;-61
2023/04/11 11:38:28;;;;;;;2.92;1.17;;;;;;;;;;5047574;28;20049;-68
2023/04/11 11:40:54;;;;;;;3.42;0.90;;;18.80;82.20;;;;;;5053016;28;20048;-72
2023/04/11 11:43:20;;;;;;;2.40;0.77;;;;;;;;;;5054564;28;20085;-61
2023/04/11 11:45:46;;;;;;;3.05;0.93;;;18.80;80.50;;;;;;5056453;28;20118;-61
2023/04/11 11:48:24;;;;;;;2.28;0.90;;;18.90;77.70;;;;;;5055718;28;20036;-60
2023/04/11 11:50:56;;;;;;;6.07;1.20;;;19.00;77.30;;;;;;5048603;28;20048;-64
2023/04/11 11:53:22;;;;;;;2.95;1.20;;;18.90;81.80;;;;;;5037002;28;20406;-61
2023/04/11 11:55:48;;;;;;;6.25;1.35;;;19.00;81.70;;;;;;5034855;28;20049;-60
2023/04/11 11:58:15;;;;;;;4.60;1.25;;;19.00;81.40;;;;;;5047030;28;20052;-60
2023/04/11 12:00:41;;;;;;;3.95;1.02;;;;;;;;;;5055319;28;20073;-61
2023/04/11 12:03:11;;;;;;;3.88;1.33;;;;;;;;;;5053337;28;20055;-61
2023/04/11 12:05:37;;;;;;;3.00;1.13;;;;;;;;;;5056644;28;20045;-64
2023/04/11 12:08:04;;;;;;;4.18;1.10;;;19.30;78.40;;;;;;5055289;28;20055;-62
2023/04/11 12:10:37;;;;;;;4.45;1.17;;;19.60;76.80;;;;;;5049168;28;20033;-66
2023/04/11 12:13:12;;;;;;;;;;;19.20;78.40;;;;;;5050508;28;20053;-62
2023/04/11 12:15:39;;;;;;;6.90;1.40;;;;;;;;;;5052543;28;20020;-73
2023/04/11 12:18:08;;;;;;;4.43;1.38;;;19.30;81.10;;;;;;5010948;28;20096;-61
2023/04/11 12:20:34;;;;;;;6.40;1.23;;;;;;;;;;5013462;28;20049;-67
2023/04/11 12:23:00;;;;;;;3.58;1.00;;;19.40;81.30;;;;;;5014349;28;20045;-71
2023/04/11 12:25:26;;;;;;;4.03;1.08;;;19.20;77.10;;;;;;5014860;28;20049;-67
2023/04/11 12:27:52;;;;;;;2.38;0.88;;;19.50;81.40;;;;;;5004473;28;20403;-61
2023/04/11 12:30:19;;;;;;;5.55;1.08;;;;;;;;;;5002494;28;20065;-63
2023/04/11 12:32:45;;;;;;;4.07;1.08;;;19.40;81.40;;;;;;4996022;28;20129;-63
2023/04/11 12:35:11;;;;;;;6.00;1.30;;;19.40;79.20;;;;;;5019009;28;20074;-61
2023/04/11 12:37:37;;;;;;;2.85;0.95;;;19.40;81.40;;;;;;5004769;28;20120;-61
2023/04/11 12:40:12;;;;;;;2.95;0.93;;;19.40;77.20;;;;;;5014279;28;20042;-61
2023/04/11 12:42:43;;;;;;;3.45;1.10;;;19.10;77.80;;;;;;4987387;28;20054;-67
2023/04/11 12:45:10;;;;;;;3.10;1.15;;;19.40;80.30;;;;;;5005345;28;20057;-61
2023/04/11 12:47:36;;;;;;;4.22;1.13;;;19.30;81.50;;;;;;5010923;28;20052;-63
2023/04/11 12:50:03;;;;;;;3.67;1.17;;;18.90;77.80;;;;;;5009679;28;20038;-68
2023/04/11 12:52:29;;;;;;;3.20;0.90;;;;;;;;;;5014057;28;20042;-64
2023/04/11 12:54:55;;;;;;;2.65;1.10;;;19.20;81.80;;;;;;5014028;28;20125;-63
2023/04/11 12:57:21;;;;;;;3.70;1.02;;;19.20;81.90;;;;;;5013822;28;20117;-61
2023/04/11 12:59:47;;;;;;;5.35;1.30;;;;;;;;;;5012563;28;20557;-62
2023/04/11 13:02:13;;;;;;;2.75;0.90;;;;;;;;;;5012665;28;20093;-73
2023/04/11 13:04:40;;;;;;;3.72;1.20;;;;;;;;;;5014623;28;20042;-68
2023/04/11 13:07:06;;;;;;;4.70;1.38;;;;;;;;;;5010908;28;20061;-61
2023/04/11 13:09:33;;;;;;;5.28;1.10;;;19.40;78.80;;;;;;5010300;28;20072;-71
2023/04/11 13:12:02;;;;;;;3.40;1.50;;;19.00;81.90;;;;;;5012924;28;20449;-61
2023/04/11 13:14:28;;;;;;;2.35;0.82;;;19.20;81.90;;;;;;5011905;28;20500;-61
2023/04/11 13:16:54;;;;;;;4.40;1.35;;;19.30;81.80;;;;;;5012614;28;20037;-61
2023/04/11 13:19:20;;;;;;;5.00;1.30;;;19.20;78.00;;;;;;5010868;28;20049;-61
2023/04/11 13:21:46;;;;;;;3.28;1.25;;;19.20;81.90;;;;;;5010371;28;20054;-61
2023/04/11 13:24:12;;;;;;;6.30;1.33;;;19.30;82.00;;;;;;4995163;28;20154;-61
2023/04/11 13:26:38;;;;;;;4.10;1.20;;;19.20;81.90;;;;;;5005625;28;20049;-61